Terminal Aerodrome Forecast
Issued by NWS Mt. Holly, NJ

Home | Current Version | Previous Version | Text Only | Print | Product List | Glossary On
Versions: 1 2 3 4 5 6 7 8 9 10 11 12 13 14 15 16 17 18
555
FTUS41 KPHI 241858 AAA
TAFILG
TAF AMD
KILG 241858Z 2419/2518 02008KT P6SM BKN025 OVC040
     FM242100 02007KT P6SM BKN040
     FM250300 35005KT P6SM SKC
     FM251300 01008KT P6SM SCT150=

USA.gov is the U.S. government's official web portal to all federal, state and local government web resources and services.